sensor_id;sensor_type;location;lat;lon;timestamp;P1;durP1;ratioP1;P2;durP2;ratioP2
78840;SDS011;68379;47.190;27.558;2024-02-26T00:00:25;28.70;;;12.10;;
78840;SDS011;68379;47.190;27.558;2024-02-26T00:03:16;29.10;;;12.70;;
78840;SDS011;68379;47.190;27.558;2024-02-26T00:05:48;21.20;;;11.40;;
78840;SDS011;68379;47.190;27.558;2024-02-26T00:08:20;26.70;;;11.80;;
78840;SDS011;68379;47.190;27.558;2024-02-26T00:10:51;33.20;;;12.90;;
78840;SDS011;68379;47.190;27.558;2024-02-26T00:13:22;27.80;;;12.10;;
78840;SDS011;68379;47.190;27.558;2024-02-26T00:15:54;24.90;;;12.20;;
78840;SDS011;68379;47.190;27.558;2024-02-26T00:18:26;27.10;;;12.00;;
78840;SDS011;68379;47.190;27.558;2024-02-26T00:20:57;31.30;;;13.00;;
78840;SDS011;68379;47.190;27.558;2024-02-26T00:23:29;25.50;;;12.60;;
78840;SDS011;68379;47.190;27.558;2024-02-26T00:26:00;28.40;;;12.30;;
78840;SDS011;68379;47.190;27.558;2024-02-26T00:28:32;26.40;;;11.90;;
78840;SDS011;68379;47.190;27.558;2024-02-26T00:31:04;25.80;;;11.90;;
78840;SDS011;68379;47.190;27.558;2024-02-26T00:33:35;29.50;;;12.90;;
78840;SDS011;68379;47.190;27.558;2024-02-26T00:36:07;24.60;;;12.10;;
78840;SDS011;68379;47.190;27.558;2024-02-26T00:38:39;26.70;;;13.50;;
78840;SDS011;68379;47.190;27.558;2024-02-26T00:41:11;28.60;;;12.90;;
78840;SDS011;68379;47.190;27.558;2024-02-26T00:43:42;27.10;;;12.50;;
78840;SDS011;68379;47.190;27.558;2024-02-26T00:46:14;27.50;;;12.90;;
78840;SDS011;68379;47.190;27.558;2024-02-26T00:48:46;30.10;;;12.20;;
78840;SDS011;68379;47.190;27.558;2024-02-26T00:51:17;25.10;;;12.10;;
78840;SDS011;68379;47.190;27.558;2024-02-26T00:53:49;29.50;;;12.80;;
78840;SDS011;68379;47.190;27.558;2024-02-26T00:56:21;23.10;;;11.80;;
78840;SDS011;68379;47.190;27.558;2024-02-26T00:58:52;29.00;;;12.90;;
78840;SDS011;68379;47.190;27.558;2024-02-26T01:01:24;30.90;;;12.00;;
78840;SDS011;68379;47.190;27.558;2024-02-26T01:03:55;22.20;;;10.50;;
78840;SDS011;68379;47.190;27.558;2024-02-26T01:06:27;26.80;;;13.20;;
78840;SDS011;68379;47.190;27.558;2024-02-26T01:08:59;28.10;;;11.20;;
78840;SDS011;68379;47.190;27.558;2024-02-26T01:11:30;30.20;;;12.30;;
78840;SDS011;68379;47.190;27.558;2024-02-26T01:14:02;24.20;;;10.60;;
78840;SDS011;68379;47.190;27.558;2024-02-26T01:16:34;23.60;;;10.50;;
78840;SDS011;68379;47.190;27.558;2024-02-26T01:19:06;25.40;;;10.80;;
78840;SDS011;68379;47.190;27.558;2024-02-26T01:21:37;22.00;;;10.40;;
78840;SDS011;68379;47.190;27.558;2024-02-26T01:24:09;26.00;;;11.60;;
78840;SDS011;68379;47.190;27.558;2024-02-26T01:26:40;27.90;;;11.40;;
78840;SDS011;68379;47.190;27.558;2024-02-26T01:29:12;23.10;;;10.60;;
78840;SDS011;68379;47.190;27.558;2024-02-26T01:31:43;23.80;;;10.90;;
78840;SDS011;68379;47.190;27.558;2024-02-26T01:34:15;24.30;;;10.50;;
78840;SDS011;68379;47.190;27.558;2024-02-26T01:36:47;25.90;;;10.40;;
78840;SDS011;68379;47.190;27.558;2024-02-26T01:39:19;24.40;;;9.50;;
78840;SDS011;68379;47.190;27.558;2024-02-26T01:41:51;23.10;;;10.00;;
78840;SDS011;68379;47.190;27.558;2024-02-26T01:44:22;19.30;;;9.10;;
78840;SDS011;68379;47.190;27.558;2024-02-26T01:46:55;17.40;;;9.40;;
78840;SDS011;68379;47.190;27.558;2024-02-26T01:49:27;20.40;;;8.80;;
78840;SDS011;68379;47.190;27.558;2024-02-26T01:51:59;22.20;;;9.80;;
78840;SDS011;68379;47.190;27.558;2024-02-26T01:54:31;20.50;;;9.10;;
78840;SDS011;68379;47.190;27.558;2024-02-26T01:57:06;21.30;;;9.40;;
78840;SDS011;68379;47.190;27.558;2024-02-26T01:59:39;22.00;;;10.10;;
78840;SDS011;68379;47.190;27.558;2024-02-26T02:02:11;19.90;;;9.30;;
78840;SDS011;68379;47.190;27.558;2024-02-26T02:04:45;21.30;;;8.80;;
78840;SDS011;68379;47.190;27.558;2024-02-26T02:07:16;22.10;;;9.80;;
78840;SDS011;68379;47.190;27.558;2024-02-26T02:09:48;27.10;;;10.00;;
78840;SDS011;68379;47.190;27.558;2024-02-26T02:12:20;20.20;;;8.00;;
78840;SDS011;68379;47.190;27.558;2024-02-26T02:14:53;18.70;;;8.70;;
78840;SDS011;68379;47.190;27.558;2024-02-26T02:17:24;16.80;;;7.70;;
78840;SDS011;68379;47.190;27.558;2024-02-26T02:19:57;17.50;;;7.80;;
78840;SDS011;68379;47.190;27.558;2024-02-26T02:22:29;21.30;;;7.90;;
78840;SDS011;68379;47.190;27.558;2024-02-26T02:25:01;15.20;;;7.60;;
78840;SDS011;68379;47.190;27.558;2024-02-26T02:27:33;19.20;;;7.80;;
78840;SDS011;68379;47.190;27.558;2024-02-26T02:30:06;15.70;;;7.20;;
78840;SDS011;68379;47.190;27.558;2024-02-26T02:32:40;16.30;;;7.30;;
78840;SDS011;68379;47.190;27.558;2024-02-26T02:35:12;15.60;;;7.10;;
78840;SDS011;68379;47.190;27.558;2024-02-26T02:37:46;16.60;;;6.60;;
78840;SDS011;68379;47.190;27.558;2024-02-26T02:40:19;18.30;;;6.90;;
78840;SDS011;68379;47.190;27.558;2024-02-26T02:42:50;14.00;;;6.70;;
78840;SDS011;68379;47.190;27.558;2024-02-26T02:45:22;14.50;;;6.00;;
78840;SDS011;68379;47.190;27.558;2024-02-26T02:47:53;17.10;;;7.00;;
78840;SDS011;68379;47.190;27.558;2024-02-26T02:50:25;16.10;;;7.30;;
78840;SDS011;68379;47.190;27.558;2024-02-26T02:52:57;15.60;;;6.10;;
78840;SDS011;68379;47.190;27.558;2024-02-26T02:55:29;13.70;;;6.30;;
78840;SDS011;68379;47.190;27.558;2024-02-26T02:58:00;12.80;;;6.20;;
78840;SDS011;68379;47.190;27.558;2024-02-26T03:00:32;13.20;;;6.10;;
78840;SDS011;68379;47.190;27.558;2024-02-26T03:03:05;15.80;;;5.50;;
78840;SDS011;68379;47.190;27.558;2024-02-26T03:05:36;16.40;;;6.30;;
78840;SDS011;68379;47.190;27.558;2024-02-26T03:08:08;10.30;;;5.00;;
78840;SDS011;68379;47.190;27.558;2024-02-26T03:10:39;14.40;;;6.10;;
78840;SDS011;68379;47.190;27.558;2024-02-26T03:13:11;14.60;;;5.80;;
78840;SDS011;68379;47.190;27.558;2024-02-26T03:15:43;13.80;;;6.70;;
78840;SDS011;68379;47.190;27.558;2024-02-26T03:18:14;14.60;;;6.30;;
78840;SDS011;68379;47.190;27.558;2024-02-26T03:20:46;15.60;;;6.10;;
78840;SDS011;68379;47.190;27.558;2024-02-26T03:23:17;12.30;;;5.10;;
78840;SDS011;68379;47.190;27.558;2024-02-26T03:25:50;15.80;;;5.30;;
78840;SDS011;68379;47.190;27.558;2024-02-26T03:28:21;11.90;;;5.80;;
78840;SDS011;68379;47.190;27.558;2024-02-26T03:30:53;15.20;;;5.80;;
78840;SDS011;68379;47.190;27.558;2024-02-26T03:33:25;11.50;;;5.90;;
78840;SDS011;68379;47.190;27.558;2024-02-26T03:35:56;17.80;;;5.60;;
78840;SDS011;68379;47.190;27.558;2024-02-26T03:38:28;14.10;;;6.20;;
78840;SDS011;68379;47.190;27.558;2024-02-26T03:41:00;11.90;;;4.90;;
78840;SDS011;68379;47.190;27.558;2024-02-26T03:43:31;12.60;;;5.00;;
78840;SDS011;68379;47.190;27.558;2024-02-26T03:46:03;13.20;;;5.50;;
78840;SDS011;68379;47.190;27.558;2024-02-26T03:48:36;11.80;;;5.20;;
78840;SDS011;68379;47.190;27.558;2024-02-26T03:51:08;12.90;;;5.30;;
78840;SDS011;68379;47.190;27.558;2024-02-26T03:53:39;10.70;;;4.50;;
78840;SDS011;68379;47.190;27.558;2024-02-26T03:56:12;12.50;;;5.00;;
78840;SDS011;68379;47.190;27.558;2024-02-26T03:58:46;12.10;;;4.70;;
78840;SDS011;68379;47.190;27.558;2024-02-26T04:01:17;12.90;;;5.10;;
78840;SDS011;68379;47.190;27.558;2024-02-26T04:03:49;21.50;;;5.40;;
78840;SDS011;68379;47.190;27.558;2024-02-26T04:06:20;13.50;;;5.30;;
78840;SDS011;68379;47.190;27.558;2024-02-26T04:08:52;13.20;;;5.30;;
78840;SDS011;68379;47.190;27.558;2024-02-26T04:11:24;14.20;;;5.70;;
78840;SDS011;68379;47.190;27.558;2024-02-26T04:13:55;12.80;;;5.20;;
78840;SDS011;68379;47.190;27.558;2024-02-26T04:16:27;13.60;;;5.30;;
78840;SDS011;68379;47.190;27.558;2024-02-26T04:18:59;11.00;;;4.60;;
78840;SDS011;68379;47.190;27.558;2024-02-26T04:21:30;10.90;;;4.50;;
78840;SDS011;68379;47.190;27.558;2024-02-26T04:24:02;17.60;;;5.50;;
78840;SDS011;68379;47.190;27.558;2024-02-26T04:26:34;13.80;;;4.50;;
78840;SDS011;68379;47.190;27.558;2024-02-26T04:29:06;10.60;;;4.50;;
78840;SDS011;68379;47.190;27.558;2024-02-26T04:31:38;10.30;;;4.20;;
78840;SDS011;68379;47.190;27.558;2024-02-26T04:34:11;13.10;;;4.90;;
78840;SDS011;68379;47.190;27.558;2024-02-26T04:36:42;9.90;;;4.60;;
78840;SDS011;68379;47.190;27.558;2024-02-26T04:39:16;11.20;;;4.90;;
78840;SDS011;68379;47.190;27.558;2024-02-26T04:41:47;10.90;;;4.10;;
78840;SDS011;68379;47.190;27.558;2024-02-26T04:44:19;11.10;;;4.40;;
78840;SDS011;68379;47.190;27.558;2024-02-26T04:46:50;10.10;;;4.50;;
78840;SDS011;68379;47.190;27.558;2024-02-26T04:49:22;8.50;;;3.90;;
78840;SDS011;68379;47.190;27.558;2024-02-26T04:51:54;11.20;;;4.90;;
78840;SDS011;68379;47.190;27.558;2024-02-26T04:54:26;11.80;;;5.20;;
78840;SDS011;68379;47.190;27.558;2024-02-26T04:56:57;9.00;;;4.50;;
78840;SDS011;68379;47.190;27.558;2024-02-26T04:59:29;10.00;;;4.40;;
78840;SDS011;68379;47.190;27.558;2024-02-26T05:02:01;12.80;;;4.20;;
78840;SDS011;68379;47.190;27.558;2024-02-26T05:04:33;9.90;;;4.80;;
78840;SDS011;68379;47.190;27.558;2024-02-26T05:07:05;14.00;;;4.20;;
78840;SDS011;68379;47.190;27.558;2024-02-26T05:09:36;14.90;;;4.90;;
78840;SDS011;68379;47.190;27.558;2024-02-26T05:12:08;11.20;;;4.40;;
78840;SDS011;68379;47.190;27.558;2024-02-26T05:14:40;11.00;;;4.20;;
78840;SDS011;68379;47.190;27.558;2024-02-26T05:17:12;11.60;;;4.80;;
78840;SDS011;68379;47.190;27.558;2024-02-26T05:19:43;10.70;;;4.70;;
78840;SDS011;68379;47.190;27.558;2024-02-26T05:22:15;9.00;;;4.10;;
78840;SDS011;68379;47.190;27.558;2024-02-26T05:24:46;10.50;;;4.60;;
78840;SDS011;68379;47.190;27.558;2024-02-26T05:27:19;13.10;;;5.10;;
78840;SDS011;68379;47.190;27.558;2024-02-26T05:29:51;14.40;;;5.00;;
78840;SDS011;68379;47.190;27.558;2024-02-26T05:32:22;14.80;;;4.50;;
78840;SDS011;68379;47.190;27.558;2024-02-26T05:34:54;13.40;;;5.20;;
78840;SDS011;68379;47.190;27.558;2024-02-26T05:37:25;11.10;;;4.10;;
78840;SDS011;68379;47.190;27.558;2024-02-26T05:39:57;10.40;;;4.00;;
78840;SDS011;68379;47.190;27.558;2024-02-26T05:42:28;12.30;;;4.30;;
78840;SDS011;68379;47.190;27.558;2024-02-26T05:45:00;9.90;;;4.40;;
78840;SDS011;68379;47.190;27.558;2024-02-26T05:47:34;10.50;;;4.20;;
78840;SDS011;68379;47.190;27.558;2024-02-26T05:50:10;14.20;;;4.50;;
78840;SDS011;68379;47.190;27.558;2024-02-26T05:52:43;11.80;;;4.70;;
78840;SDS011;68379;47.190;27.558;2024-02-26T05:55:18;12.90;;;4.90;;
78840;SDS011;68379;47.190;27.558;2024-02-26T05:57:56;14.00;;;5.20;;
78840;SDS011;68379;47.190;27.558;2024-02-26T06:00:27;18.40;;;5.40;;
78840;SDS011;68379;47.190;27.558;2024-02-26T06:02:59;14.00;;;5.10;;
78840;SDS011;68379;47.190;27.558;2024-02-26T06:05:31;14.00;;;5.60;;
78840;SDS011;68379;47.190;27.558;2024-02-26T06:08:03;12.10;;;4.70;;
78840;SDS011;68379;47.190;27.558;2024-02-26T06:10:36;12.90;;;5.30;;
78840;SDS011;68379;47.190;27.558;2024-02-26T06:13:08;12.30;;;4.50;;
78840;SDS011;68379;47.190;27.558;2024-02-26T06:15:40;11.20;;;5.30;;
78840;SDS011;68379;47.190;27.558;2024-02-26T06:18:11;11.70;;;4.60;;
78840;SDS011;68379;47.190;27.558;2024-02-26T06:20:44;11.90;;;4.90;;
78840;SDS011;68379;47.190;27.558;2024-02-26T06:23:16;13.60;;;5.00;;
78840;SDS011;68379;47.190;27.558;2024-02-26T06:25:47;10.00;;;5.00;;
78840;SDS011;68379;47.190;27.558;2024-02-26T06:28:19;12.60;;;5.10;;
78840;SDS011;68379;47.190;27.558;2024-02-26T06:30:51;10.50;;;4.50;;
78840;SDS011;68379;47.190;27.558;2024-02-26T06:33:22;11.50;;;5.00;;
78840;SDS011;68379;47.190;27.558;2024-02-26T06:35:54;15.70;;;5.20;;
78840;SDS011;68379;47.190;27.558;2024-02-26T06:38:25;12.80;;;4.80;;
78840;SDS011;68379;47.190;27.558;2024-02-26T06:40:57;13.50;;;5.70;;
78840;SDS011;68379;47.190;27.558;2024-02-26T06:43:31;11.90;;;5.20;;
78840;SDS011;68379;47.190;27.558;2024-02-26T06:46:03;11.30;;;5.20;;
78840;SDS011;68379;47.190;27.558;2024-02-26T06:48:34;15.00;;;6.80;;
78840;SDS011;68379;47.190;27.558;2024-02-26T06:51:06;14.00;;;5.20;;
78840;SDS011;68379;47.190;27.558;2024-02-26T06:53:38;12.30;;;5.40;;
78840;SDS011;68379;47.190;27.558;2024-02-26T06:56:09;14.30;;;5.30;;
78840;SDS011;68379;47.190;27.558;2024-02-26T06:58:41;13.30;;;5.00;;
78840;SDS011;68379;47.190;27.558;2024-02-26T07:01:13;12.40;;;4.90;;
78840;SDS011;68379;47.190;27.558;2024-02-26T07:03:44;12.40;;;4.60;;
78840;SDS011;68379;47.190;27.558;2024-02-26T07:06:16;15.10;;;6.00;;
78840;SDS011;68379;47.190;27.558;2024-02-26T07:08:47;10.30;;;4.90;;
78840;SDS011;68379;47.190;27.558;2024-02-26T07:11:19;11.90;;;5.90;;
78840;SDS011;68379;47.190;27.558;2024-02-26T07:13:50;14.80;;;6.50;;
78840;SDS011;68379;47.190;27.558;2024-02-26T07:16:22;10.90;;;4.90;;
78840;SDS011;68379;47.190;27.558;2024-02-26T07:18:54;9.40;;;5.00;;
78840;SDS011;68379;47.190;27.558;2024-02-26T07:21:26;16.30;;;6.20;;
78840;SDS011;68379;47.190;27.558;2024-02-26T07:23:57;11.70;;;5.30;;
78840;SDS011;68379;47.190;27.558;2024-02-26T07:26:29;11.20;;;5.50;;
78840;SDS011;68379;47.190;27.558;2024-02-26T07:29:01;14.90;;;5.60;;
78840;SDS011;68379;47.190;27.558;2024-02-26T07:31:33;11.50;;;5.10;;
78840;SDS011;68379;47.190;27.558;2024-02-26T07:34:05;12.30;;;5.60;;
78840;SDS011;68379;47.190;27.558;2024-02-26T07:36:37;8.00;;;4.10;;
78840;SDS011;68379;47.190;27.558;2024-02-26T07:39:09;10.10;;;5.00;;
78840;SDS011;68379;47.190;27.558;2024-02-26T07:41:40;11.50;;;4.50;;
78840;SDS011;68379;47.190;27.558;2024-02-26T07:44:14;12.50;;;4.80;;
78840;SDS011;68379;47.190;27.558;2024-02-26T07:46:46;7.90;;;4.70;;
78840;SDS011;68379;47.190;27.558;2024-02-26T07:49:18;7.90;;;4.30;;
78840;SDS011;68379;47.190;27.558;2024-02-26T07:51:49;15.40;;;4.30;;
78840;SDS011;68379;47.190;27.558;2024-02-26T07:54:21;9.00;;;4.10;;
78840;SDS011;68379;47.190;27.558;2024-02-26T07:56:52;11.20;;;4.20;;
78840;SDS011;68379;47.190;27.558;2024-02-26T07:59:24;10.40;;;4.20;;
78840;SDS011;68379;47.190;27.558;2024-02-26T08:01:56;8.50;;;4.10;;
78840;SDS011;68379;47.190;27.558;2024-02-26T08:04:31;10.80;;;4.60;;
78840;SDS011;68379;47.190;27.558;2024-02-26T08:07:02;14.40;;;4.30;;
78840;SDS011;68379;47.190;27.558;2024-02-26T08:09:35;10.00;;;3.70;;
78840;SDS011;68379;47.190;27.558;2024-02-26T08:12:07;14.20;;;4.60;;
78840;SDS011;68379;47.190;27.558;2024-02-26T08:14:39;15.90;;;5.00;;
78840;SDS011;68379;47.190;27.558;2024-02-26T08:17:12;11.90;;;4.80;;
78840;SDS011;68379;47.190;27.558;2024-02-26T08:19:43;11.30;;;4.30;;
78840;SDS011;68379;47.190;27.558;2024-02-26T08:22:15;11.20;;;5.10;;
78840;SDS011;68379;47.190;27.558;2024-02-26T08:24:46;12.00;;;4.90;;
78840;SDS011;68379;47.190;27.558;2024-02-26T08:27:18;13.30;;;4.70;;
78840;SDS011;68379;47.190;27.558;2024-02-26T08:29:49;9.50;;;4.70;;
78840;SDS011;68379;47.190;27.558;2024-02-26T08:32:21;9.70;;;5.00;;
78840;SDS011;68379;47.190;27.558;2024-02-26T08:34:53;11.00;;;5.10;;
78840;SDS011;68379;47.190;27.558;2024-02-26T08:37:24;11.80;;;4.80;;
78840;SDS011;68379;47.190;27.558;2024-02-26T08:39:56;11.90;;;5.00;;
78840;SDS011;68379;47.190;27.558;2024-02-26T08:42:28;13.50;;;4.90;;
78840;SDS011;68379;47.190;27.558;2024-02-26T08:44:59;12.30;;;5.20;;
78840;SDS011;68379;47.190;27.558;2024-02-26T08:47:31;11.10;;;4.50;;
78840;SDS011;68379;47.190;27.558;2024-02-26T08:50:03;9.70;;;4.20;;
78840;SDS011;68379;47.190;27.558;2024-02-26T08:52:37;12.00;;;5.10;;
78840;SDS011;68379;47.190;27.558;2024-02-26T08:55:09;16.50;;;5.30;;
78840;SDS011;68379;47.190;27.558;2024-02-26T08:57:42;12.30;;;4.50;;
78840;SDS011;68379;47.190;27.558;2024-02-26T09:00:14;13.60;;;4.90;;
78840;SDS011;68379;47.190;27.558;2024-02-26T09:02:48;13.70;;;4.60;;
78840;SDS011;68379;47.190;27.558;2024-02-26T09:05:20;10.50;;;5.00;;
78840;SDS011;68379;47.190;27.558;2024-02-26T09:07:51;11.40;;;5.10;;
78840;SDS011;68379;47.190;27.558;2024-02-26T09:10:23;15.90;;;5.60;;
78840;SDS011;68379;47.190;27.558;2024-02-26T09:12:54;10.40;;;4.90;;
78840;SDS011;68379;47.190;27.558;2024-02-26T09:15:26;11.00;;;4.90;;
78840;SDS011;68379;47.190;27.558;2024-02-26T09:17:58;13.10;;;5.50;;
78840;SDS011;68379;47.190;27.558;2024-02-26T09:20:29;11.50;;;5.10;;
78840;SDS011;68379;47.190;27.558;2024-02-26T09:23:01;11.70;;;4.80;;
78840;SDS011;68379;47.190;27.558;2024-02-26T09:25:33;10.60;;;4.90;;
78840;SDS011;68379;47.190;27.558;2024-02-26T09:28:04;12.80;;;5.20;;
78840;SDS011;68379;47.190;27.558;2024-02-26T09:30:36;11.40;;;4.70;;
78840;SDS011;68379;47.190;27.558;2024-02-26T09:33:08;10.90;;;4.60;;
78840;SDS011;68379;47.190;27.558;2024-02-26T09:35:39;12.20;;;4.70;;
78840;SDS011;68379;47.190;27.558;2024-02-26T09:38:11;9.90;;;4.90;;
78840;SDS011;68379;47.190;27.558;2024-02-26T09:40:42;12.30;;;5.00;;
78840;SDS011;68379;47.190;27.558;2024-02-26T09:43:15;11.50;;;4.60;;
78840;SDS011;68379;47.190;27.558;2024-02-26T09:45:51;11.40;;;5.20;;
78840;SDS011;68379;47.190;27.558;2024-02-26T09:48:23;12.40;;;5.20;;
78840;SDS011;68379;47.190;27.558;2024-02-26T09:50:55;12.70;;;4.70;;
78840;SDS011;68379;47.190;27.558;2024-02-26T09:53:27;11.70;;;5.10;;
78840;SDS011;68379;47.190;27.558;2024-02-26T09:56:01;13.50;;;5.80;;
78840;SDS011;68379;47.190;27.558;2024-02-26T09:58:33;11.90;;;4.50;;
78840;SDS011;68379;47.190;27.558;2024-02-26T10:01:07;10.40;;;4.90;;
78840;SDS011;68379;47.190;27.558;2024-02-26T10:03:44;12.00;;;5.10;;
78840;SDS011;68379;47.190;27.558;2024-02-26T10:06:26;13.00;;;4.30;;
78840;SDS011;68379;47.190;27.558;2024-02-26T10:08:58;12.10;;;4.20;;
78840;SDS011;68379;47.190;27.558;2024-02-26T10:11:34;13.60;;;5.20;;
78840;SDS011;68379;47.190;27.558;2024-02-26T10:14:07;10.40;;;4.30;;
78840;SDS011;68379;47.190;27.558;2024-02-26T10:16:40;14.50;;;4.50;;
78840;SDS011;68379;47.190;27.558;2024-02-26T10:19:12;13.60;;;5.10;;
78840;SDS011;68379;47.190;27.558;2024-02-26T10:22:00;17.60;;;5.30;;
78840;SDS011;68379;47.190;27.558;2024-02-26T10:24:32;12.70;;;4.70;;
78840;SDS011;68379;47.190;27.558;2024-02-26T10:27:04;12.60;;;5.20;;
78840;SDS011;68379;47.190;27.558;2024-02-26T10:29:37;12.30;;;5.30;;
78840;SDS011;68379;47.190;27.558;2024-02-26T10:32:11;13.10;;;6.80;;
78840;SDS011;68379;47.190;27.558;2024-02-26T10:34:42;11.20;;;5.00;;
78840;SDS011;68379;47.190;27.558;2024-02-26T10:37:15;13.90;;;5.70;;
78840;SDS011;68379;47.190;27.558;2024-02-26T10:39:47;14.20;;;5.20;;
78840;SDS011;68379;47.190;27.558;2024-02-26T10:42:19;13.20;;;5.30;;
78840;SDS011;68379;47.190;27.558;2024-02-26T10:44:52;9.40;;;4.30;;
78840;SDS011;68379;47.190;27.558;2024-02-26T10:47:23;7.70;;;3.80;;
78840;SDS011;68379;47.190;27.558;2024-02-26T10:49:55;8.00;;;4.40;;
78840;SDS011;68379;47.190;27.558;2024-02-26T10:52:28;12.30;;;4.80;;
78840;SDS011;68379;47.190;27.558;2024-02-26T10:55:03;13.80;;;5.10;;
78840;SDS011;68379;47.190;27.558;2024-02-26T10:57:38;11.60;;;4.90;;
78840;SDS011;68379;47.190;27.558;2024-02-26T11:00:13;8.90;;;4.60;;
78840;SDS011;68379;47.190;27.558;2024-02-26T11:02:45;11.00;;;5.40;;
78840;SDS011;68379;47.190;27.558;2024-02-26T11:05:18;12.90;;;5.40;;
78840;SDS011;68379;47.190;27.558;2024-02-26T11:07:51;12.40;;;4.60;;
78840;SDS011;68379;47.190;27.558;2024-02-26T11:10:25;10.70;;;5.20;;
78840;SDS011;68379;47.190;27.558;2024-02-26T11:12:59;11.00;;;4.40;;
78840;SDS011;68379;47.190;27.558;2024-02-26T11:15:32;13.10;;;5.00;;
78840;SDS011;68379;47.190;27.558;2024-02-26T11:18:05;10.60;;;4.70;;
78840;SDS011;68379;47.190;27.558;2024-02-26T11:20:39;10.90;;;5.30;;
78840;SDS011;68379;47.190;27.558;2024-02-26T11:23:12;11.00;;;4.10;;
78840;SDS011;68379;47.190;27.558;2024-02-26T11:25:43;8.10;;;3.90;;
78840;SDS011;68379;47.190;27.558;2024-02-26T11:28:15;9.50;;;3.60;;
78840;SDS011;68379;47.190;27.558;2024-02-26T11:30:49;5.20;;;2.80;;
78840;SDS011;68379;47.190;27.558;2024-02-26T11:33:21;5.00;;;2.70;;
78840;SDS011;68379;47.190;27.558;2024-02-26T11:35:54;6.90;;;2.90;;
78840;SDS011;68379;47.190;27.558;2024-02-26T11:38:26;5.00;;;2.60;;
78840;SDS011;68379;47.190;27.558;2024-02-26T11:40:58;7.90;;;3.00;;
78840;SDS011;68379;47.190;27.558;2024-02-26T11:46:27;5.40;;;2.80;;
78840;SDS011;68379;47.190;27.558;2024-02-26T11:49:00;6.60;;;2.60;;
78840;SDS011;68379;47.190;27.558;2024-02-26T11:51:34;4.10;;;2.60;;
78840;SDS011;68379;47.190;27.558;2024-02-26T11:54:06;6.70;;;2.60;;
78840;SDS011;68379;47.190;27.558;2024-02-26T11:56:40;7.10;;;2.40;;
78840;SDS011;68379;47.190;27.558;2024-02-26T11:59:11;5.50;;;3.00;;
78840;SDS011;68379;47.190;27.558;2024-02-26T12:02:03;6.10;;;2.60;;
78840;SDS011;68379;47.190;27.558;2024-02-26T12:04:36;5.50;;;3.00;;
78840;SDS011;68379;47.190;27.558;2024-02-26T12:07:08;8.50;;;3.20;;
78840;SDS011;68379;47.190;27.558;2024-02-26T12:09:41;4.70;;;2.60;;
78840;SDS011;68379;47.190;27.558;2024-02-26T12:12:17;6.70;;;2.80;;
78840;SDS011;68379;47.190;27.558;2024-02-26T12:14:52;6.20;;;2.70;;
78840;SDS011;68379;47.190;27.558;2024-02-26T12:17:25;5.80;;;2.90;;
78840;SDS011;68379;47.190;27.558;2024-02-26T12:19:58;5.20;;;3.00;;
78840;SDS011;68379;47.190;27.558;2024-02-26T12:22:40;6.10;;;2.80;;
78840;SDS011;68379;47.190;27.558;2024-02-26T12:25:14;7.60;;;2.80;;
78840;SDS011;68379;47.190;27.558;2024-02-26T12:27:45;6.90;;;3.20;;
78840;SDS011;68379;47.190;27.558;2024-02-26T12:30:17;7.10;;;2.70;;
78840;SDS011;68379;47.190;27.558;2024-02-26T12:32:49;6.20;;;2.80;;
78840;SDS011;68379;47.190;27.558;2024-02-26T12:35:25;7.60;;;2.80;;
78840;SDS011;68379;47.190;27.558;2024-02-26T12:37:57;4.40;;;2.20;;
78840;SDS011;68379;47.190;27.558;2024-02-26T12:40:31;6.90;;;3.30;;
78840;SDS011;68379;47.190;27.558;2024-02-26T12:43:03;5.90;;;3.10;;
78840;SDS011;68379;47.190;27.558;2024-02-26T12:45:40;5.20;;;2.60;;
78840;SDS011;68379;47.190;27.558;2024-02-26T12:48:14;5.70;;;3.20;;
78840;SDS011;68379;47.190;27.558;2024-02-26T12:50:46;4.50;;;2.50;;
78840;SDS011;68379;47.190;27.558;2024-02-26T12:53:17;7.70;;;3.30;;
78840;SDS011;68379;47.190;27.558;2024-02-26T12:55:49;4.90;;;3.20;;
78840;SDS011;68379;47.190;27.558;2024-02-26T12:58:20;5.90;;;3.30;;
78840;SDS011;68379;47.190;27.558;2024-02-26T13:00:56;6.50;;;3.00;;
78840;SDS011;68379;47.190;27.558;2024-02-26T13:03:27;6.70;;;3.10;;
78840;SDS011;68379;47.190;27.558;2024-02-26T13:06:00;6.30;;;3.50;;
78840;SDS011;68379;47.190;27.558;2024-02-26T13:08:34;8.00;;;3.50;;
78840;SDS011;68379;47.190;27.558;2024-02-26T13:11:06;6.50;;;2.70;;
78840;SDS011;68379;47.190;27.558;2024-02-26T13:13:38;7.60;;;3.20;;
78840;SDS011;68379;47.190;27.558;2024-02-26T13:16:10;8.20;;;3.90;;
78840;SDS011;68379;47.190;27.558;2024-02-26T13:18:45;8.50;;;3.50;;
78840;SDS011;68379;47.190;27.558;2024-02-26T13:21:17;8.60;;;3.60;;
78840;SDS011;68379;47.190;27.558;2024-02-26T13:23:51;10.30;;;3.30;;
78840;SDS011;68379;47.190;27.558;2024-02-26T13:26:24;7.70;;;3.80;;
78840;SDS011;68379;47.190;27.558;2024-02-26T13:29:02;6.60;;;3.20;;
78840;SDS011;68379;47.190;27.558;2024-02-26T13:31:39;7.20;;;3.10;;
78840;SDS011;68379;47.190;27.558;2024-02-26T13:34:11;10.40;;;3.00;;
78840;SDS011;68379;47.190;27.558;2024-02-26T13:36:52;6.60;;;3.40;;
78840;SDS011;68379;47.190;27.558;2024-02-26T13:39:24;8.70;;;3.30;;
78840;SDS011;68379;47.190;27.558;2024-02-26T13:41:56;8.50;;;3.70;;
78840;SDS011;68379;47.190;27.558;2024-02-26T13:44:28;9.20;;;3.10;;
78840;SDS011;68379;47.190;27.558;2024-02-26T13:46:59;5.60;;;2.70;;
78840;SDS011;68379;47.190;27.558;2024-02-26T13:49:31;6.40;;;3.00;;
78840;SDS011;68379;47.190;27.558;2024-02-26T13:52:03;6.80;;;3.30;;
78840;SDS011;68379;47.190;27.558;2024-02-26T13:54:35;6.70;;;2.80;;
78840;SDS011;68379;47.190;27.558;2024-02-26T13:59:38;9.30;;;2.90;;
78840;SDS011;68379;47.190;27.558;2024-02-26T14:02:10;6.00;;;2.90;;
78840;SDS011;68379;47.190;27.558;2024-02-26T14:04:42;6.60;;;3.10;;
78840;SDS011;68379;47.190;27.558;2024-02-26T14:07:14;6.30;;;3.10;;
78840;SDS011;68379;47.190;27.558;2024-02-26T14:09:46;6.70;;;2.70;;
78840;SDS011;68379;47.190;27.558;2024-02-26T14:12:19;6.50;;;2.50;;
78840;SDS011;68379;47.190;27.558;2024-02-26T14:14:51;5.50;;;2.70;;
78840;SDS011;68379;47.190;27.558;2024-02-26T14:17:23;6.50;;;2.90;;
78840;SDS011;68379;47.190;27.558;2024-02-26T14:19:55;4.90;;;2.30;;
78840;SDS011;68379;47.190;27.558;2024-02-26T14:22:27;6.80;;;3.00;;
78840;SDS011;68379;47.190;27.558;2024-02-26T14:24:59;7.30;;;2.40;;
78840;SDS011;68379;47.190;27.558;2024-02-26T14:27:31;6.70;;;2.40;;
78840;SDS011;68379;47.190;27.558;2024-02-26T14:30:02;10.20;;;2.60;;
78840;SDS011;68379;47.190;27.558;2024-02-26T14:32:36;5.70;;;2.40;;
78840;SDS011;68379;47.190;27.558;2024-02-26T14:35:08;6.00;;;2.20;;
78840;SDS011;68379;47.190;27.558;2024-02-26T14:37:40;14.30;;;3.10;;
78840;SDS011;68379;47.190;27.558;2024-02-26T14:40:14;4.60;;;2.10;;
78840;SDS011;68379;47.190;27.558;2024-02-26T14:42:45;5.80;;;2.20;;
78840;SDS011;68379;47.190;27.558;2024-02-26T14:45:17;4.80;;;2.40;;
78840;SDS011;68379;47.190;27.558;2024-02-26T14:47:48;6.90;;;3.00;;
78840;SDS011;68379;47.190;27.558;2024-02-26T14:50:20;5.10;;;2.40;;
78840;SDS011;68379;47.190;27.558;2024-02-26T14:52:52;7.50;;;2.40;;
78840;SDS011;68379;47.190;27.558;2024-02-26T14:55:23;5.10;;;2.60;;
78840;SDS011;68379;47.190;27.558;2024-02-26T14:57:55;5.60;;;2.50;;